Time;durP1;ratioP1;P1;durP2;ratioP2;P2;SDS_P1;SDS_P2;PMS_P1;PMS_P2;Temp;Humidity;BMP_temperature;BMP_pressure;BME280_temperature;BME280_humidity;BME280_pressure;Samples;Min_cycle;Max_cycle;Signal;HPM_P1;HPM_P2
2021/11/21 00:00:23;;;;;;;21.40;13.15;;;;;;;11.04;50.43;95330.28;4992114;28;20080;-65
2021/11/21 00:02:49;;;;;;;18.27;12.52;;;;;;;10.51;50.14;95243.16;4995239;28;20027;-64
2021/11/21 00:05:15;;;;;;;21.92;14.18;;;;;;;11.05;50.17;95316.69;4995398;28;20027;-64
2021/11/21 00:07:41;;;;;;;15.55;13.32;;;;;;;11.08;50.13;95315.31;4990929;28;20113;-65
2021/11/21 00:10:07;;;;;;;23.10;14.45;;;;;;;11.09;50.37;95322.19;4991512;28;20533;-63
2021/11/21 00:12:32;;;;;;;18.05;12.40;;;;;;;10.99;50.22;95295.81;4992112;28;20122;-64
2021/11/21 00:14:58;;;;;;;35.80;13.45;;;;;;;11.04;50.12;95301.78;4991838;28;20105;-64
2021/11/21 00:17:23;;;;;;;38.95;14.73;;;;;;;11.00;50.37;95300.03;4998845;28;20026;-64
2021/11/21 00:19:49;;;;;;;15.73;12.98;;;;;;;10.98;50.18;95304.88;4996682;28;20100;-63
2021/11/21 00:22:15;;;;;;;51.67;15.13;;;;;;;10.99;50.41;95309.91;4990714;28;20032;-63
2021/11/21 00:24:41;;;;;;;30.42;13.10;;;;;;;10.99;50.32;95309.13;4991717;28;20030;-64
2021/11/21 00:27:07;;;;;;;18.77;13.18;;;;;;;10.86;50.08;95292.13;4991863;28;20027;-64
2021/11/21 00:29:32;;;;;;;16.80;12.27;;;;;;;10.89;50.23;95291.50;4991627;28;20029;-64
2021/11/21 00:31:58;;;;;;;27.65;13.68;;;;;;;10.87;50.71;95293.69;4995042;28;20022;-64
2021/11/21 00:34:23;;;;;;;17.23;12.10;;;;;;;10.70;50.18;95281.03;4996810;28;20067;-63
2021/11/21 00:36:48;;;;;;;15.23;12.10;;;;;;;10.64;50.11;95266.25;4991636;28;20069;-63
2021/11/21 00:39:14;;;;;;;16.88;12.35;;;;;;;10.80;50.33;95283.47;4991487;28;20022;-63
2021/11/21 00:41:40;;;;;;;32.03;12.57;;;;;;;10.74;49.80;95278.56;4990433;28;20029;-65
2021/11/21 00:44:06;;;;;;;22.10;12.00;;;;;;;10.68;50.10;95267.25;4991523;28;20034;-63
2021/11/21 00:46:31;;;;;;;12.35;11.05;;;;;;;10.76;49.38;95268.41;4991269;28;20026;-63
2021/11/21 00:48:57;;;;;;;58.88;14.38;;;;;;;10.71;49.32;95265.88;4999584;28;20371;-63
2021/11/21 00:51:23;;;;;;;22.05;11.13;;;;;;;10.61;50.33;95245.59;4992558;28;20098;-64
2021/11/21 00:53:52;;;;;;;31.33;12.20;;;;;;;10.59;50.25;95256.53;4991240;28;20037;-65
2021/11/21 00:56:19;;;;;;;27.15;11.55;;;;;;;10.53;50.24;95246.31;4991304;28;20026;-66
2021/11/21 00:58:45;;;;;;;19.60;11.18;;;;;;;10.54;50.04;95255.84;4991506;28;20057;-65
2021/11/21 01:01:11;;;;;;;19.58;10.30;;;;;;;10.45;50.57;95239.06;4988697;28;20441;-65
2021/11/21 01:03:36;;;;;;;109.82;15.07;;;;;;;10.51;49.93;95243.16;4994910;28;20518;-64
2021/11/21 01:06:02;;;;;;;14.77;10.32;;;;;;;10.46;49.85;95246.72;4994962;28;20022;-64
2021/11/21 01:08:28;;;;;;;41.20;10.90;;;;;;;10.38;50.08;95253.53;4990944;28;20030;-64
2021/11/21 01:10:58;;;;;;;23.52;11.15;;;;;;;10.34;50.08;95243.81;4990876;28;20029;-64
2021/11/21 01:13:24;;;;;;;10.40;8.15;;;;;;;10.24;49.55;95228.09;4991016;28;20038;-65
2021/11/21 01:15:51;;;;;;;8.27;7.05;;;;;;;10.27;49.62;95230.91;4991079;28;20030;-65
2021/11/21 01:18:17;;;;;;;10.68;8.27;;;;;;;10.15;49.93;95220.00;5010387;28;20654;-63
2021/11/21 01:20:42;;;;;;;8.73;7.93;;;;;;;10.11;49.12;95224.31;4989343;28;20023;-64
2021/11/21 01:23:10;;;;;;;11.90;8.20;;;;;;;10.03;48.94;95207.22;4990744;28;20026;-63
2021/11/21 01:25:36;;;;;;;8.02;7.22;;;;;;;9.96;48.85;95211.34;4989756;28;20110;-63
2021/11/21 01:28:02;;;;;;;10.30;7.95;;;;;;;9.93;49.84;95218.06;4991015;28;20498;-64
2021/11/21 01:30:29;;;;;;;8.80;8.10;;;;;;;9.82;49.52;95206.84;4990536;28;20026;-63
2021/11/21 01:32:57;;;;;;;8.13;7.28;;;;;;;9.90;49.49;95211.47;4994922;28;20091;-64
2021/11/21 01:35:23;;;;;;;17.17;7.55;;;;;;;9.76;49.21;95208.03;4995391;28;20028;-64
2021/11/21 01:37:48;;;;;;;11.75;6.53;;;;;;;9.70;49.17;95198.59;4991067;28;20025;-64
2021/11/21 01:40:16;;;;;;;8.60;6.95;;;;;;;9.70;49.03;95208.44;4989172;28;20031;-64
2021/11/21 01:42:42;;;;;;;6.80;6.25;;;;;;;9.66;49.73;95207.44;4989265;28;20022;-64
2021/11/21 01:45:09;;;;;;;8.68;6.25;;;;;;;9.58;48.92;95200.97;4989146;28;20026;-65
2021/11/21 01:47:41;;;;;;;6.20;5.70;;;;;;;9.46;49.32;95195.34;4994713;28;20023;-64
2021/11/21 01:50:08;;;;;;;6.05;5.55;;;;;;;9.23;49.17;95168.69;4994661;28;20157;-63
2021/11/21 01:52:34;;;;;;;6.43;5.93;;;;;;;9.23;49.64;95189.16;4990550;28;20491;-64
2021/11/21 01:54:59;;;;;;;6.53;5.93;;;;;;;9.10;49.83;95175.56;4989999;28;20100;-64
2021/11/21 01:57:25;;;;;;;7.30;6.72;;;;;;;9.01;49.68;95187.94;4990516;28;20030;-64
2021/11/21 01:59:51;;;;;;;6.47;5.97;;;;;;;8.85;50.05;95176.00;4988748;28;20118;-65
2021/11/21 02:02:17;;;;;;;6.32;5.82;;;;;;;8.79;50.27;95164.69;4989939;28;20026;-64
2021/11/21 02:04:43;;;;;;;7.78;6.90;;;;;;;8.75;50.69;95170.88;4994358;28;20027;-64
2021/11/21 02:07:08;;;;;;;6.50;5.95;;;;;;;8.61;50.77;95154.16;4990057;28;20028;-64
2021/11/21 02:09:34;;;;;;;7.53;6.82;;;;;;;8.63;50.69;95154.66;4990247;28;20472;-64
2021/11/21 02:11:59;;;;;;;9.30;7.35;;;;;;;8.62;50.69;95156.50;4989415;28;20057;-63
2021/11/21 02:14:25;;;;;;;12.23;7.55;;;;;;;8.14;51.55;95153.25;4990510;28;20058;-63
2021/11/21 02:16:50;;;;;;;9.48;7.45;;;;;;;8.28;51.79;95176.09;4989822;28;20383;-64
2021/11/21 02:19:17;;;;;;;8.27;7.47;;;;;;;8.51;51.85;95171.03;4989482;28;20032;-62
2021/11/21 02:21:43;;;;;;;58.63;9.25;;;;;;;8.56;51.17;95153.16;4990113;28;20062;-64
2021/11/21 02:24:08;;;;;;;62.42;8.93;;;;;;;8.47;51.40;95159.41;4988572;28;20105;-64
2021/11/21 02:26:33;;;;;;;9.65;7.93;;;;;;;8.53;51.57;95151.06;4989977;28;20517;-64
2021/11/21 02:28:59;;;;;;;15.65;7.72;;;;;;;8.60;51.82;95145.44;4988356;28;20045;-63
2021/11/21 02:31:24;;;;;;;17.65;7.88;;;;;;;8.56;51.31;95133.81;4988195;28;20077;-64
2021/11/21 02:33:51;;;;;;;33.30;8.57;;;;;;;8.59;51.33;95141.97;4994307;28;20041;-64
2021/11/21 02:36:18;;;;;;;8.13;7.38;;;;;;;8.63;51.08;95133.44;4989580;28;20022;-63
2021/11/21 02:38:44;;;;;;;9.68;7.90;;;;;;;8.57;51.03;95130.88;4989978;28;20085;-64
2021/11/21 02:41:10;;;;;;;8.10;7.38;;;;;;;8.43;51.09;95122.09;4988362;28;20030;-63
2021/11/21 02:43:37;;;;;;;7.38;6.50;;;;;;;8.44;51.25;95128.16;4989563;28;20034;-63
2021/11/21 02:46:03;;;;;;;7.05;6.45;;;;;;;8.27;51.02;95100.31;4989899;28;20022;-63
2021/11/21 02:48:31;;;;;;;7.55;6.95;;;;;;;8.28;51.43;95109.84;4992629;28;20023;-63
2021/11/21 02:50:58;;;;;;;7.70;7.00;;;;;;;8.29;51.34;95108.78;4984645;28;20023;-64
2021/11/21 02:53:27;;;;;;;7.60;6.90;;;;;;;8.26;51.48;95105.91;4989335;28;20109;-63
2021/11/21 02:55:58;;;;;;;7.03;6.43;;;;;;;8.30;51.28;95101.63;4989961;28;20022;-64
2021/11/21 02:58:25;;;;;;;7.13;6.53;;;;;;;8.33;51.39;95091.19;4989713;28;20500;-63
2021/11/21 03:00:53;;;;;;;6.97;6.38;;;;;;;8.38;51.56;95082.41;4989486;28;20111;-63
2021/11/21 03:03:18;;;;;;;8.15;7.20;;;;;;;8.48;51.14;95081.44;4993356;28;20076;-64
2021/11/21 03:05:44;;;;;;;7.82;7.10;;;;;;;8.62;51.43;95087.56;4989528;28;20627;-64
2021/11/21 03:08:09;;;;;;;7.35;6.72;;;;;;;8.68;51.31;95078.44;4988881;28;20030;-63
2021/11/21 03:10:35;;;;;;;37.13;8.25;;;;;;;8.81;51.20;95085.63;4988267;28;20068;-63
2021/11/21 03:13:04;;;;;;;9.50;7.30;;;;;;;8.79;50.89;95060.47;4989287;28;20022;-64
2021/11/21 03:15:30;;;;;;;39.35;7.72;;;;;;;8.84;51.12;95058.50;4988462;28;20610;-64
2021/11/21 03:17:55;;;;;;;55.55;9.25;;;;;;;8.94;51.40;95070.03;4992667;28;20053;-64
2021/11/21 03:20:30;;;;;;;15.52;7.63;;;;;;;8.98;50.97;95055.09;4988847;28;20508;-64
2021/11/21 03:22:57;;;;;;;35.45;8.00;;;;;;;8.95;51.02;95053.81;4987974;28;20030;-63
2021/11/21 03:25:22;;;;;;;39.53;7.78;;;;;;;8.92;50.78;95043.78;4991381;28;20037;-63
2021/11/21 03:27:48;;;;;;;12.68;7.30;;;;;;;8.93;50.83;95047.22;4992976;28;20026;-63
2021/11/21 03:30:18;;;;;;;86.03;9.25;;;;;;;8.98;50.90;95047.13;4991489;28;20061;-63
2021/11/21 03:32:44;;;;;;;108.22;9.13;;;;;;;8.89;50.78;95030.31;4994143;28;20048;-63
2021/11/21 03:35:09;;;;;;;14.82;6.68;;;;;;;8.90;50.65;95032.69;4995255;28;20591;-63
2021/11/21 03:37:36;;;;;;;36.20;7.18;;;;;;;8.97;50.84;95042.91;4992744;28;20492;-63
2021/11/21 03:40:04;;;;;;;39.20;7.50;;;;;;;8.92;51.03;95038.50;4992567;28;20089;-64
2021/11/21 03:42:29;;;;;;;74.00;8.63;;;;;;;8.82;50.64;95025.44;4993233;28;20376;-64
2021/11/21 03:44:55;;;;;;;45.58;7.75;;;;;;;8.87;50.89;95021.91;4992956;28;20077;-64
2021/11/21 03:47:20;;;;;;;30.60;7.20;;;;;;;8.92;50.88;95027.09;4992739;28;20726;-64
2021/11/21 03:49:46;;;;;;;28.58;7.45;;;;;;;8.86;51.10;95023.75;4997178;28;20093;-64
2021/11/21 03:52:11;;;;;;;33.45;7.28;;;;;;;8.95;51.34;95024.63;4992600;28;20026;-63
2021/11/21 03:54:37;;;;;;;61.92;9.18;;;;;;;8.85;51.29;95012.38;4992307;28;20022;-63
2021/11/21 03:57:03;;;;;;;128.43;10.85;;;;;;;8.86;51.40;95015.81;4992679;28;20383;-63
2021/11/21 03:59:28;;;;;;;122.30;11.18;;;;;;;8.89;51.72;95025.03;4992017;28;20054;-63
2021/11/21 04:01:55;;;;;;;57.55;9.43;;;;;;;8.95;51.52;95019.31;4990959;28;20040;-63
2021/11/21 04:04:21;;;;;;;81.88;10.55;;;;;;;8.96;51.75;95020.91;4996569;28;20158;-63
2021/11/21 04:06:47;;;;;;;137.40;11.52;;;;;;;8.97;51.99;95024.34;4996694;28;20026;-62
2021/11/21 04:09:13;;;;;;;149.48;10.77;;;;;;;8.11;52.27;95008.13;4990732;28;20038;-64
2021/11/21 04:11:38;;;;;;;101.78;9.93;;;;;;;8.03;52.58;95014.88;4992265;28;20034;-64
2021/11/21 04:14:03;;;;;;;127.60;10.50;;;;;;;7.55;53.99;95029.09;4992226;28;20036;-63
2021/11/21 04:16:29;;;;;;;169.45;11.85;;;;;;;7.74;54.31;95023.03;4992288;28;20034;-64
2021/11/21 04:18:55;;;;;;;150.48;10.70;;;;;;;7.42;55.12;95027.19;4995986;28;20026;-64
2021/11/21 04:21:20;;;;;;;210.98;12.05;;;;;;;5.61;60.24;95011.88;4996375;28;20038;-64
2021/11/21 04:23:46;;;;;;;299.33;13.52;;;;;;;5.94;61.05;95028.06;4991784;28;20033;-63
2021/11/21 04:26:12;;;;;;;105.13;11.57;;;;;;;6.97;59.14;95025.94;4991949;28;20085;-64
2021/11/21 04:28:37;;;;;;;378.17;19.83;;;;;;;7.24;58.22;95009.44;4992134;28;20109;-64
2021/11/21 04:31:03;;;;;;;197.70;13.38;;;;;;;7.08;57.44;95021.31;4991705;28;20030;-64
2021/11/21 04:33:29;;;;;;;209.40;14.20;;;;;;;6.84;58.91;95010.75;4994722;28;20092;-64
2021/11/21 04:35:55;;;;;;;221.65;14.02;;;;;;;6.49;59.47;95008.22;4995500;28;20030;-63
2021/11/21 04:38:23;;;;;;;249.32;15.05;;;;;;;5.82;62.38;95019.66;4991841;28;20297;-63
2021/11/21 04:40:51;;;;;;;238.02;16.58;;;;;;;5.46;63.77;94988.25;4991835;28;20030;-63
2021/11/21 04:43:16;;;;;;;281.75;16.00;;;;;;;5.41;64.00;95004.13;4991603;28;20487;-63
2021/11/21 04:45:42;;;;;;;175.00;16.02;;;;;;;5.86;63.52;94996.94;4991825;28;20030;-65
2021/11/21 04:48:07;;;;;;;189.93;16.80;;;;;;;6.07;63.21;95005.47;4995672;28;20037;-64
2021/11/21 04:50:34;;;;;;;283.92;15.65;;;;;;;5.39;64.42;95009.69;4995858;28;20028;-63
2021/11/21 04:52:59;;;;;;;189.20;14.43;;;;;;;5.89;63.56;94996.38;4990009;28;20026;-63
2021/11/21 04:55:25;;;;;;;177.23;13.50;;;;;;;5.54;63.69;94992.97;4991677;28;20500;-64
2021/11/21 04:57:50;;;;;;;201.25;13.45;;;;;;;5.36;63.90;95014.69;4991716;28;20030;-64
2021/11/21 05:00:18;;;;;;;265.05;14.07;;;;;;;5.50;64.02;94993.78;4991162;28;20030;-63
2021/11/21 05:02:48;;;;;;;164.02;12.48;;;;;;;5.90;62.77;94992.69;4992720;28;20413;-63
2021/11/21 05:05:15;;;;;;;222.95;14.77;;;;;;;4.62;65.66;94987.41;4997487;28;20025;-63
2021/11/21 05:07:42;;;;;;;292.60;15.18;;;;;;;5.64;63.78;94997.38;4991030;28;20049;-64
2021/11/21 05:10:08;;;;;;;204.20;15.07;;;;;;;5.05;64.64;94983.25;4990843;28;20052;-63
2021/11/21 05:12:36;;;;;;;157.45;10.90;;;;;;;5.53;63.30;94986.13;4991254;28;20031;-64
2021/11/21 05:15:01;;;;;;;122.30;10.18;;;;;;;4.43;65.09;94940.59;4989615;28;20034;-63
2021/11/21 05:17:27;;;;;;;153.43;10.57;;;;;;;4.89;64.66;94968.56;4989453;28;20026;-64
2021/11/21 05:19:53;;;;;;;136.13;10.65;;;;;;;4.58;64.78;94973.97;4994941;28;20476;-64
2021/11/21 05:22:19;;;;;;;126.05;10.52;;;;;;;4.17;65.96;94975.97;4990914;28;20030;-64
2021/11/21 05:24:45;;;;;;;111.82;10.63;;;;;;;5.08;64.44;94972.16;4990598;28;20606;-65
2021/11/21 05:27:10;;;;;;;150.98;11.57;;;;;;;4.41;65.56;94984.06;4990837;28;20077;-64
2021/11/21 05:29:36;;;;;;;227.13;13.77;;;;;;;4.11;65.51;94972.56;4989150;28;20492;-63
2021/11/21 05:32:02;;;;;;;190.18;10.60;;;;;;;4.07;65.69;94975.97;4989234;28;20054;-63
2021/11/21 05:34:27;;;;;;;179.38;12.00;;;;;;;3.86;66.61;94959.44;4994300;28;20034;-62
2021/11/21 05:36:53;;;;;;;131.95;10.98;;;;;;;4.20;65.48;94977.25;4990700;28;20555;-63
2021/11/21 05:39:18;;;;;;;251.50;15.65;;;;;;;4.74;64.77;94972.06;4990139;28;20030;-63
2021/11/21 05:41:44;;;;;;;45.95;8.90;;;;;;;5.27;63.21;94968.88;4990776;28;20451;-63
2021/11/21 05:44:09;;;;;;;156.05;12.80;;;;;;;5.97;61.15;94961.47;4990260;28;20053;-63
2021/11/21 05:46:34;;;;;;;36.42;9.07;;;;;;;6.47;60.38;94954.09;4990347;28;20542;-65
2021/11/21 05:49:00;;;;;;;261.73;15.05;;;;;;;6.64;59.19;94964.19;4991948;28;20483;-64
2021/11/21 05:51:25;;;;;;;188.57;13.10;;;;;;;5.51;60.27;94969.75;4989418;28;20030;-63
2021/11/21 05:53:52;;;;;;;130.60;11.60;;;;;;;6.06;58.89;94965.09;4990172;28;20455;-64
2021/11/21 05:56:21;;;;;;;27.58;9.68;;;;;;;6.58;58.75;94958.19;4990353;28;20023;-65
2021/11/21 05:58:49;;;;;;;22.63;9.15;;;;;;;6.85;57.99;94947.00;4990383;28;20030;-64
2021/11/21 06:01:15;;;;;;;37.55;9.63;;;;;;;7.03;58.24;94940.94;4988897;28;20037;-65
2021/11/21 06:03:40;;;;;;;11.73;8.45;;;;;;;7.23;57.29;94942.53;4991112;28;20065;-64
2021/11/21 06:06:06;;;;;;;51.15;10.82;;;;;;;7.34;56.92;94923.84;4993566;28;20030;-62
2021/11/21 06:08:31;;;;;;;17.77;8.73;;;;;;;7.22;56.34;94942.81;4989192;28;20034;-62
2021/11/21 06:10:57;;;;;;;37.63;8.85;;;;;;;7.32;55.72;94939.22;4989622;28;20034;-63
2021/11/21 06:13:24;;;;;;;22.73;9.18;;;;;;;7.45;56.09;94939.28;4989996;28;20092;-63
2021/11/21 06:15:50;;;;;;;53.08;10.90;;;;;;;7.57;55.73;94936.16;4990209;28;20109;-62
2021/11/21 06:18:16;;;;;;;17.75;9.15;;;;;;;7.50;55.45;94896.06;4989525;28;20102;-62
2021/11/21 06:20:41;;;;;;;21.17;7.60;;;;;;;7.67;54.55;94906.88;4992781;28;20096;-63
2021/11/21 06:23:07;;;;;;;20.65;7.78;;;;;;;7.83;54.62;94910.09;4988443;28;20030;-63
2021/11/21 06:25:32;;;;;;;8.23;7.40;;;;;;;7.78;54.50;94903.00;4988667;28;20027;-63
2021/11/21 06:27:58;;;;;;;7.95;7.15;;;;;;;7.99;53.93;94924.63;4990112;28;20062;-63
2021/11/21 06:30:23;;;;;;;12.60;6.53;;;;;;;8.02;53.61;94926.66;4989763;28;20037;-63
2021/11/21 06:32:48;;;;;;;22.45;8.73;;;;;;;8.06;53.25;94934.81;4989202;28;20030;-63
2021/11/21 06:35:14;;;;;;;20.45;9.70;;;;;;;8.07;52.93;94913.34;4994145;28;20084;-64
2021/11/21 06:37:39;;;;;;;7.53;6.70;;;;;;;8.08;52.87;94919.41;4989899;28;20538;-63
2021/11/21 06:40:06;;;;;;;13.57;6.78;;;;;;;8.03;52.36;94906.25;4988468;28;20156;-63
2021/11/21 06:42:31;;;;;;;41.50;8.10;;;;;;;7.98;52.40;94903.72;4989889;28;20034;-64
2021/11/21 06:44:56;;;;;;;15.65;7.05;;;;;;;8.11;52.51;94923.34;4988276;28;20034;-64
2021/11/21 06:47:22;;;;;;;57.58;7.10;;;;;;;8.04;52.13;94923.75;4989298;28;20427;-63
2021/11/21 06:49:49;;;;;;;18.42;5.50;;;;;;;7.85;52.11;94893.91;4991679;28;20026;-64
2021/11/21 06:52:15;;;;;;;16.75;5.03;;;;;;;8.00;52.09;94915.59;4998235;23;20158;-70
2021/11/21 06:54:41;;;;;;;18.83;5.75;;;;;;;8.00;52.59;94914.81;4989541;28;20392;-70
2021/11/21 06:57:06;;;;;;;41.88;6.63;;;;;;;8.03;52.24;94907.03;4989705;28;20100;-71
2021/11/21 06:59:32;;;;;;;8.93;5.07;;;;;;;8.13;52.40;94913.25;4989032;28;20026;-69
2021/11/21 07:01:57;;;;;;;14.95;5.90;;;;;;;8.17;51.77;94916.88;4993673;28;20041;-68
2021/11/21 07:04:22;;;;;;;30.13;6.32;;;;;;;8.15;51.55;94917.19;4991349;28;20019;-72
2021/11/21 07:06:48;;;;;;;55.97;9.25;;;;;;;8.04;52.07;94921.88;4992052;28;20117;-65
2021/11/21 07:09:17;;;;;;;9.68;5.40;;;;;;;8.16;52.25;94917.97;4991744;28;20065;-67
2021/11/21 07:11:45;;;;;;;13.18;6.32;;;;;;;8.03;52.47;94914.22;4993524;28;20026;-68
2021/11/21 07:14:11;;;;;;;6.50;5.40;;;;;;;8.18;51.95;94924.53;4993276;28;20014;-67
2021/11/21 07:16:46;;;;;;;6.55;5.57;;;;;;;8.10;51.59;94913.84;4993310;28;20388;-68
2021/11/21 07:19:12;;;;;;;6.40;5.80;;;;;;;8.20;51.62;94918.97;4996883;28;20503;-69
2021/11/21 07:21:37;;;;;;;6.38;5.78;;;;;;;8.20;51.63;94911.78;4993289;28;20031;-66
2021/11/21 07:24:03;;;;;;;7.55;5.40;;;;;;;8.25;51.61;94917.00;4993186;28;20034;-68
2021/11/21 07:26:28;;;;;;;10.25;7.97;;;;;;;8.13;51.56;94898.13;4993322;28;20456;-69
2021/11/21 07:28:53;;;;;;;5.93;5.38;;;;;;;8.36;51.39;94920.25;4993052;28;20573;-65
2021/11/21 07:31:20;;;;;;;6.32;5.82;;;;;;;8.41;51.31;94914.09;4993344;28;20068;-67
2021/11/21 07:33:45;;;;;;;6.68;5.40;;;;;;;8.38;50.94;94901.41;4992975;28;20114;-70
2021/11/21 07:36:10;;;;;;;16.65;7.20;;;;;;;8.48;51.08;94917.09;4998009;28;20446;-65
2021/11/21 07:38:36;;;;;;;6.00;5.50;;;;;;;8.49;50.99;94906.19;4992106;28;20019;-67
2021/11/21 07:41:03;;;;;;;5.68;5.18;;;;;;;8.57;50.78;94907.38;4993263;28;20026;-69
2021/11/21 07:43:30;;;;;;;7.82;7.13;;;;;;;8.60;50.77;94912.09;4992001;28;20030;-69
2021/11/21 07:45:58;;;;;;;5.90;5.30;;;;;;;8.63;50.69;94910.72;4994308;28;20027;-70
2021/11/21 07:48:23;;;;;;;5.85;5.35;;;;;;;8.57;50.87;94910.81;4992778;28;20026;-69
2021/11/21 07:50:49;;;;;;;6.80;5.90;;;;;;;8.15;50.70;94911.09;4998003;28;20027;-64
2021/11/21 07:53:15;;;;;;;6.22;5.72;;;;;;;8.13;51.32;94913.25;4994081;28;20042;-65
2021/11/21 07:55:41;;;;;;;6.30;5.75;;;;;;;8.32;51.68;94901.47;4991345;28;20026;-65
2021/11/21 07:58:06;;;;;;;6.57;6.05;;;;;;;8.48;51.28;94907.28;4992701;28;20046;-65
2021/11/21 08:00:32;;;;;;;7.65;6.78;;;;;;;8.52;51.01;94905.63;4992390;28;20026;-67
2021/11/21 08:02:57;;;;;;;8.93;8.02;;;;;;;8.33;51.26;94883.72;4992105;28;20030;-66
2021/11/21 08:05:24;;;;;;;7.93;7.22;;;;;;;8.47;51.46;94913.69;4996709;28;20065;-65
2021/11/21 08:07:49;;;;;;;10.40;9.07;;;;;;;8.43;51.45;94896.00;4996813;28;20027;-66
2021/11/21 08:10:15;;;;;;;7.05;6.45;;;;;;;8.45;51.55;94899.16;4991911;28;20627;-65
2021/11/21 08:12:41;;;;;;;6.18;5.68;;;;;;;8.48;51.16;94909.16;4992573;28;20042;-64
2021/11/21 08:15:06;;;;;;;7.88;7.13;;;;;;;8.52;51.48;94902.97;4992023;28;20098;-65
2021/11/21 08:17:32;;;;;;;8.43;7.63;;;;;;;8.51;51.41;94909.34;4991978;28;20935;-65
2021/11/21 08:19:57;;;;;;;8.02;7.32;;;;;;;8.42;51.45;94897.09;4996043;28;20110;-68
2021/11/21 08:22:23;;;;;;;7.45;6.85;;;;;;;8.41;51.75;94876.97;4995525;28;20023;-66
2021/11/21 08:24:48;;;;;;;6.82;6.22;;;;;;;8.55;51.92;94883.84;4991898;28;20085;-66
2021/11/21 08:27:14;;;;;;;6.95;6.40;;;;;;;8.66;51.79;94883.63;4992277;28;20076;-67
2021/11/21 08:29:40;;;;;;;7.05;6.55;;;;;;;8.27;52.56;94890.97;4991947;28;20030;-68
2021/11/21 08:32:06;;;;;;;6.82;6.22;;;;;;;7.65;54.84;94900.31;4992280;28;20085;-66
2021/11/21 08:34:33;;;;;;;7.05;6.35;;;;;;;8.36;53.51;94896.41;4994822;28;20431;-67
2021/11/21 08:36:59;;;;;;;7.70;7.00;;;;;;;8.13;54.59;94887.53;4996605;28;20395;-68
2021/11/21 08:39:26;;;;;;;6.68;6.07;;;;;;;7.11;56.52;94891.91;4991702;28;20088;-68
2021/11/21 08:41:53;;;;;;;7.53;6.82;;;;;;;7.66;55.86;94883.38;4992004;28;20101;-71
2021/11/21 08:44:19;;;;;;;7.50;6.80;;;;;;;7.80;56.32;94878.88;4991608;28;20054;-70
2021/11/21 08:46:46;;;;;;;7.45;6.75;;;;;;;7.79;55.56;94882.63;4991624;28;20057;-67
2021/11/21 08:49:12;;;;;;;6.25;5.65;;;;;;;6.94;58.12;94899.56;4995471;28;20021;-66
2021/11/21 08:51:40;;;;;;;6.03;5.53;;;;;;;6.37;59.45;94878.38;4991302;28;20054;-66
2021/11/21 08:54:06;;;;;;;6.13;5.63;;;;;;;7.37;57.29;94875.63;4989860;28;20629;-66
2021/11/21 08:56:31;;;;;;;7.22;6.63;;;;;;;8.14;56.05;94872.41;4991643;28;20031;-66
2021/11/21 08:58:56;;;;;;;6.10;5.60;;;;;;;7.12;57.99;94885.56;4991147;28;20109;-67
2021/11/21 09:01:22;;;;;;;6.00;5.40;;;;;;;6.89;57.80;94876.63;4991830;28;20026;-67
2021/11/21 09:03:47;;;;;;;5.68;5.18;;;;;;;7.12;58.06;94884.78;4990848;28;20084;-67
2021/11/21 09:06:12;;;;;;;5.38;4.75;;;;;;;7.28;57.08;94883.47;4994900;28;20026;-68
2021/11/21 09:08:38;;;;;;;6.32;5.72;;;;;;;7.13;57.61;94881.84;4991352;28;20073;-68
2021/11/21 09:11:03;;;;;;;5.03;4.63;;;;;;;6.54;58.92;94879.75;4991081;28;20039;-67
2021/11/21 09:13:29;;;;;;;5.85;5.15;;;;;;;6.48;60.08;94879.03;4990982;28;20026;-68
2021/11/21 09:15:54;;;;;;;5.35;4.95;;;;;;;7.12;58.84;94893.50;4990159;28;20022;-68
2021/11/21 09:18:24;;;;;;;6.32;5.75;;;;;;;7.40;57.33;94881.13;4990707;28;20113;-69
2021/11/21 09:20:52;;;;;;;6.10;5.05;;;;;;;7.32;57.29;94875.72;4996448;28;20160;-70
2021/11/21 09:23:19;;;;;;;5.45;4.95;;;;;;;7.35;57.58;94875.94;4991420;28;20022;-69
2021/11/21 09:25:45;;;;;;;5.13;4.72;;;;;;;8.19;55.18;94859.06;4989774;28;20121;-70
2021/11/21 09:28:10;;;;;;;5.50;5.00;;;;;;;8.81;53.99;94868.16;4990771;28;20396;-70
2021/11/21 09:30:36;;;;;;;5.50;5.10;;;;;;;8.33;53.99;94855.34;4989679;28;20026;-70
2021/11/21 09:33:02;;;;;;;5.85;5.30;;;;;;;8.71;53.42;94854.34;4990711;28;20030;-70
2021/11/21 09:35:27;;;;;;;5.35;4.85;;;;;;;8.92;53.78;94849.38;4994909;28;20038;-71
2021/11/21 09:37:53;;;;;;;5.20;4.80;;;;;;;8.39;54.46;94853.41;4990851;28;20432;-70
2021/11/21 09:40:18;;;;;;;5.50;5.00;;;;;;;8.20;54.66;94828.88;4990106;28;20019;-70
2021/11/21 09:42:44;;;;;;;5.75;5.25;;;;;;;8.02;55.88;94855.16;4990575;28;20026;-70
2021/11/21 09:45:12;;;;;;;5.85;5.35;;;;;;;8.92;54.25;94849.38;4990379;28;20034;-70
2021/11/21 09:47:38;;;;;;;5.32;4.85;;;;;;;8.29;55.23;94849.09;4990420;28;20105;-69
2021/11/21 09:50:09;;;;;;;5.90;5.40;;;;;;;8.48;55.20;94842.88;4992697;28;20113;-69
2021/11/21 09:52:36;;;;;;;6.00;5.40;;;;;;;8.50;55.40;94856.66;4987469;28;20033;-69
2021/11/21 09:55:03;;;;;;;6.00;5.50;;;;;;;8.74;54.16;94853.72;4989723;28;20038;-67
2021/11/21 09:57:30;;;;;;;6.55;5.95;;;;;;;9.30;54.16;94847.94;4990218;28;20031;-68
2021/11/21 10:00:01;;;;;;;6.03;5.53;;;;;;;9.92;52.17;94844.50;4989977;28;20028;-69
2021/11/21 10:02:30;;;;;;;6.00;5.40;;;;;;;9.21;52.97;94844.41;4989161;28;20034;-68
2021/11/21 10:04:57;;;;;;;5.18;4.78;;;;;;;8.92;53.83;94830.81;4992848;28;20018;-66
2021/11/21 10:07:34;;;;;;;5.82;5.25;;;;;;;8.90;54.53;94833.75;4991110;28;20502;-71
2021/11/21 10:10:01;;;;;;;5.43;4.93;;;;;;;9.18;54.27;94839.72;4989009;28;20399;-69
2021/11/21 10:12:34;;;;;;;5.97;5.40;;;;;;;9.24;53.50;94841.19;4990200;28;20469;-71
2021/11/21 10:15:07;;;;;;;6.05;5.55;;;;;;;9.02;54.83;94834.00;4989802;28;20073;-67
2021/11/21 10:17:35;;;;;;;5.85;5.35;;;;;;;9.47;54.03;94819.91;4990409;28;20030;-68
2021/11/21 10:20:24;;;;;;;5.78;5.38;;;;;;;9.13;53.82;94821.28;4993340;28;20475;-68
2021/11/21 10:23:05;;;;;;;5.95;5.35;;;;;;;9.11;54.45;94824.25;4989161;28;20042;-66
2021/11/21 10:25:34;;;;;;;5.38;4.88;;;;;;;10.23;52.44;94822.41;4970717;28;20133;-66
2021/11/21 10:28:22;;;;;;;6.07;5.57;;;;;;;9.83;52.85;94825.13;4969357;28;20034;-66
2021/11/21 10:30:59;;;;;;;5.75;5.22;;;;;;;9.77;53.27;94819.13;4968828;28;20046;-66
2021/11/21 10:33:31;;;;;;;6.78;5.25;;;;;;;9.63;53.27;94815.81;4970566;28;20042;-66
2021/11/21 10:36:18;;;;;;;6.65;5.82;;;;;;;9.77;53.42;94821.00;4985313;28;20037;-65
2021/11/21 10:38:43;;;;;;;6.32;5.25;;;;;;;9.14;54.96;94808.78;4986850;28;20105;-66
2021/11/21 10:41:21;;;;;;;6.20;5.60;;;;;;;9.53;53.90;94814.19;4992142;28;20125;-66
2021/11/21 10:44:13;;;;;;;6.75;6.15;;;;;;;9.70;52.63;94810.81;4993767;28;20022;-66
2021/11/21 10:46:42;;;;;;;6.20;5.70;;;;;;;9.53;54.16;94816.84;4992632;28;20031;-66
2021/11/21 10:49:11;;;;;;;5.50;5.00;;;;;;;9.01;55.14;94800.59;4991852;28;20028;-67
2021/11/21 10:51:37;;;;;;;5.82;5.30;;;;;;;9.18;54.52;94797.28;4997170;28;20038;-68
2021/11/21 10:54:02;;;;;;;6.70;6.10;;;;;;;9.43;54.20;94787.91;4992225;28;20439;-67
2021/11/21 10:56:30;;;;;;;6.95;6.30;;;;;;;8.86;55.02;94795.66;4993725;28;20033;-71
2021/11/21 10:58:55;;;;;;;7.07;6.47;;;;;;;9.88;53.25;94785.91;4992215;28;20038;-72
2021/11/21 11:01:25;;;;;;;7.05;6.45;;;;;;;10.28;52.51;94780.56;4993407;28;20030;-67
2021/11/21 11:04:14;;;;;;;6.85;6.25;;;;;;;10.35;52.13;94749.00;4993363;28;20026;-75
2021/11/21 11:06:41;;;;;;;7.07;6.38;;;;;;;9.05;55.13;94785.63;4994765;28;20357;-69
2021/11/21 11:09:25;;;;;;;9.18;6.30;;;;;;;9.57;54.37;94779.81;4993401;28;20026;-80
2021/11/21 11:11:52;;;;;;;6.43;5.82;;;;;;;9.21;55.04;94777.28;4992341;28;20034;-69
2021/11/21 11:14:20;;;;;;;7.43;6.75;;;;;;;9.79;53.83;94777.13;4993083;28;20057;-74
2021/11/21 11:16:48;;;;;;;9.43;6.97;;;;;;;9.77;53.49;94767.88;4994162;28;20022;-76
2021/11/21 11:19:15;;;;;;;7.65;6.07;;;;;;;9.07;55.56;94767.56;4992256;28;20038;-71
2021/11/21 11:21:43;;;;;;;6.63;6.03;;;;;;;9.79;54.03;94769.16;4997521;28;20389;-70
2021/11/21 11:24:10;;;;;;;7.45;6.68;;;;;;;9.63;55.03;94765.34;4992851;28;20034;-70
2021/11/21 11:26:36;;;;;;;7.68;6.88;;;;;;;9.46;55.34;94767.91;4993340;28;20091;-70
2021/11/21 11:29:05;;;;;;;7.68;6.53;;;;;;;9.51;55.14;94759.81;4992441;28;20030;-68